sensor_id;sensor_type;location;lat;lon;timestamp;temperature;humidity
21830;DHT22;11077;50.264;6.798;2023-04-03T00:02:16;1.10;99.90
21830;DHT22;11077;50.264;6.798;2023-04-03T00:04:43;1.10;99.90
21830;DHT22;11077;50.264;6.798;2023-04-03T00:07:12;1.20;99.90
21830;DHT22;11077;50.264;6.798;2023-04-03T00:09:40;1.20;99.90
21830;DHT22;11077;50.264;6.798;2023-04-03T00:12:07;1.20;99.90
21830;DHT22;11077;50.264;6.798;2023-04-03T00:14:34;1.20;99.90
21830;DHT22;11077;50.264;6.798;2023-04-03T00:17:02;1.10;99.90
21830;DHT22;11077;50.264;6.798;2023-04-03T00:19:29;1.10;99.90
21830;DHT22;11077;50.264;6.798;2023-04-03T00:21:56;1.10;99.90
21830;DHT22;11077;50.264;6.798;2023-04-03T00:24:25;1.10;99.90
21830;DHT22;11077;50.264;6.798;2023-04-03T00:26:52;1.10;99.90
21830;DHT22;11077;50.264;6.798;2023-04-03T00:29:20;1.10;99.90
21830;DHT22;11077;50.264;6.798;2023-04-03T00:31:47;1.00;99.90
21830;DHT22;11077;50.264;6.798;2023-04-03T00:34:15;1.00;99.90
21830;DHT22;11077;50.264;6.798;2023-04-03T00:36:42;1.00;99.90
21830;DHT22;11077;50.264;6.798;2023-04-03T00:39:10;1.00;99.90
21830;DHT22;11077;50.264;6.798;2023-04-03T00:41:38;1.00;99.90
21830;DHT22;11077;50.264;6.798;2023-04-03T00:44:22;1.00;99.90
21830;DHT22;11077;50.264;6.798;2023-04-03T00:47:12;1.00;99.90
21830;DHT22;11077;50.264;6.798;2023-04-03T00:49:44;1.00;99.90
21830;DHT22;11077;50.264;6.798;2023-04-03T00:52:15;0.90;99.90
21830;DHT22;11077;50.264;6.798;2023-04-03T00:54:47;0.90;99.90
21830;DHT22;11077;50.264;6.798;2023-04-03T00:57:18;0.90;99.90
21830;DHT22;11077;50.264;6.798;2023-04-03T00:59:51;0.90;99.90
21830;DHT22;11077;50.264;6.798;2023-04-03T01:02:24;0.90;99.90
21830;DHT22;11077;50.264;6.798;2023-04-03T01:04:52;0.90;99.90
21830;DHT22;11077;50.264;6.798;2023-04-03T01:07:32;0.90;99.90
21830;DHT22;11077;50.264;6.798;2023-04-03T01:10:12;0.90;99.90
21830;DHT22;11077;50.264;6.798;2023-04-03T01:12:49;0.90;99.90
21830;DHT22;11077;50.264;6.798;2023-04-03T01:15:19;0.90;99.90
21830;DHT22;11077;50.264;6.798;2023-04-03T01:17:49;0.80;99.90
21830;DHT22;11077;50.264;6.798;2023-04-03T01:23:29;0.90;99.90
21830;DHT22;11077;50.264;6.798;2023-04-03T01:25:59;0.80;99.90
21830;DHT22;11077;50.264;6.798;2023-04-03T01:28:28;0.80;99.90
21830;DHT22;11077;50.264;6.798;2023-04-03T01:31:00;0.80;99.90
21830;DHT22;11077;50.264;6.798;2023-04-03T01:33:34;0.70;99.90
21830;DHT22;11077;50.264;6.798;2023-04-03T01:36:06;0.70;99.90
21830;DHT22;11077;50.264;6.798;2023-04-03T01:38:34;0.70;99.90
21830;DHT22;11077;50.264;6.798;2023-04-03T01:41:01;0.70;99.90
21830;DHT22;11077;50.264;6.798;2023-04-03T01:43:29;0.70;99.90
21830;DHT22;11077;50.264;6.798;2023-04-03T01:45:56;0.60;99.90
21830;DHT22;11077;50.264;6.798;2023-04-03T01:48:23;0.60;99.90
21830;DHT22;11077;50.264;6.798;2023-04-03T01:50:53;0.60;99.90
21830;DHT22;11077;50.264;6.798;2023-04-03T01:53:21;0.60;99.90
21830;DHT22;11077;50.264;6.798;2023-04-03T01:55:48;0.50;99.90
21830;DHT22;11077;50.264;6.798;2023-04-03T01:58:16;0.50;99.90
21830;DHT22;11077;50.264;6.798;2023-04-03T02:00:43;0.50;99.90
21830;DHT22;11077;50.264;6.798;2023-04-03T02:03:10;0.50;99.90
21830;DHT22;11077;50.264;6.798;2023-04-03T02:05:40;0.50;99.90
21830;DHT22;11077;50.264;6.798;2023-04-03T02:08:08;0.50;99.90
21830;DHT22;11077;50.264;6.798;2023-04-03T02:10:35;0.50;99.90
21830;DHT22;11077;50.264;6.798;2023-04-03T02:13:03;0.50;99.90
21830;DHT22;11077;50.264;6.798;2023-04-03T02:15:30;0.50;99.90
21830;DHT22;11077;50.264;6.798;2023-04-03T02:17:58;0.50;99.90
21830;DHT22;11077;50.264;6.798;2023-04-03T02:20:26;0.60;99.90
21830;DHT22;11077;50.264;6.798;2023-04-03T02:22:53;0.60;99.90
21830;DHT22;11077;50.264;6.798;2023-04-03T02:25:22;0.60;99.90
21830;DHT22;11077;50.264;6.798;2023-04-03T02:27:50;0.50;99.90
21830;DHT22;11077;50.264;6.798;2023-04-03T02:30:17;0.50;99.90
21830;DHT22;11077;50.264;6.798;2023-04-03T02:32:45;0.50;99.90
21830;DHT22;11077;50.264;6.798;2023-04-03T02:35:13;0.40;99.90
21830;DHT22;11077;50.264;6.798;2023-04-03T02:37:40;0.40;99.90
21830;DHT22;11077;50.264;6.798;2023-04-03T02:40:08;0.40;99.90
21830;DHT22;11077;50.264;6.798;2023-04-03T02:42:38;0.40;99.90
21830;DHT22;11077;50.264;6.798;2023-04-03T02:45:07;0.40;99.90
21830;DHT22;11077;50.264;6.798;2023-04-03T02:47:34;0.40;99.90
21830;DHT22;11077;50.264;6.798;2023-04-03T02:50:01;0.40;99.90
21830;DHT22;11077;50.264;6.798;2023-04-03T02:52:32;0.40;99.90
21830;DHT22;11077;50.264;6.798;2023-04-03T02:54:59;0.40;99.90
21830;DHT22;11077;50.264;6.798;2023-04-03T02:57:26;0.40;99.90
21830;DHT22;11077;50.264;6.798;2023-04-03T02:59:56;0.40;99.90
21830;DHT22;11077;50.264;6.798;2023-04-03T03:02:23;0.40;99.90
21830;DHT22;11077;50.264;6.798;2023-04-03T03:04:51;0.40;99.90
21830;DHT22;11077;50.264;6.798;2023-04-03T03:07:18;0.40;99.90
21830;DHT22;11077;50.264;6.798;2023-04-03T03:09:45;0.40;99.90
21830;DHT22;11077;50.264;6.798;2023-04-03T03:12:12;0.40;99.90
21830;DHT22;11077;50.264;6.798;2023-04-03T03:14:40;0.40;99.90
21830;DHT22;11077;50.264;6.798;2023-04-03T03:17:10;0.50;99.90
21830;DHT22;11077;50.264;6.798;2023-04-03T03:19:38;0.40;99.90
21830;DHT22;11077;50.264;6.798;2023-04-03T03:22:06;0.30;99.90
21830;DHT22;11077;50.264;6.798;2023-04-03T03:24:33;0.30;99.90
21830;DHT22;11077;50.264;6.798;2023-04-03T03:27:01;0.30;99.90
21830;DHT22;11077;50.264;6.798;2023-04-03T03:29:28;0.30;99.90
21830;DHT22;11077;50.264;6.798;2023-04-03T03:31:55;0.20;99.90
21830;DHT22;11077;50.264;6.798;2023-04-03T03:34:24;0.20;99.90
21830;DHT22;11077;50.264;6.798;2023-04-03T03:36:51;0.20;99.90
21830;DHT22;11077;50.264;6.798;2023-04-03T03:39:18;0.20;99.90
21830;DHT22;11077;50.264;6.798;2023-04-03T03:41:46;0.20;99.90
21830;DHT22;11077;50.264;6.798;2023-04-03T03:44:15;0.20;99.90
21830;DHT22;11077;50.264;6.798;2023-04-03T03:46:43;0.20;99.90
21830;DHT22;11077;50.264;6.798;2023-04-03T03:49:10;0.20;99.90
21830;DHT22;11077;50.264;6.798;2023-04-03T03:51:39;0.20;99.90
21830;DHT22;11077;50.264;6.798;2023-04-03T03:54:07;0.20;99.90
21830;DHT22;11077;50.264;6.798;2023-04-03T03:56:35;0.20;99.90
21830;DHT22;11077;50.264;6.798;2023-04-03T03:59:02;0.30;99.90
21830;DHT22;11077;50.264;6.798;2023-04-03T04:01:31;0.30;99.90
21830;DHT22;11077;50.264;6.798;2023-04-03T04:03:59;0.20;99.90
21830;DHT22;11077;50.264;6.798;2023-04-03T04:06:30;0.30;99.90
21830;DHT22;11077;50.264;6.798;2023-04-03T04:09:03;0.20;99.90
21830;DHT22;11077;50.264;6.798;2023-04-03T04:11:30;0.30;99.90
21830;DHT22;11077;50.264;6.798;2023-04-03T04:13:59;0.30;99.90
21830;DHT22;11077;50.264;6.798;2023-04-03T04:16:28;0.30;99.90
21830;DHT22;11077;50.264;6.798;2023-04-03T04:18:59;0.30;99.90
21830;DHT22;11077;50.264;6.798;2023-04-03T04:21:26;0.30;99.90
21830;DHT22;11077;50.264;6.798;2023-04-03T04:23:54;0.30;99.90
21830;DHT22;11077;50.264;6.798;2023-04-03T04:26:23;0.20;99.90
21830;DHT22;11077;50.264;6.798;2023-04-03T04:28:51;0.20;99.90
21830;DHT22;11077;50.264;6.798;2023-04-03T04:31:19;0.10;99.90
21830;DHT22;11077;50.264;6.798;2023-04-03T04:33:47;0.10;99.90
21830;DHT22;11077;50.264;6.798;2023-04-03T04:36:15;0.10;99.90
21830;DHT22;11077;50.264;6.798;2023-04-03T04:38:45;0.10;99.90
21830;DHT22;11077;50.264;6.798;2023-04-03T04:41:13;0.10;99.90
21830;DHT22;11077;50.264;6.798;2023-04-03T04:43:42;0.10;99.90
21830;DHT22;11077;50.264;6.798;2023-04-03T04:46:11;0.10;99.90
21830;DHT22;11077;50.264;6.798;2023-04-03T04:48:43;0.00;99.90
21830;DHT22;11077;50.264;6.798;2023-04-03T04:51:11;-0.10;99.90
21830;DHT22;11077;50.264;6.798;2023-04-03T04:53:39;-0.10;99.90
21830;DHT22;11077;50.264;6.798;2023-04-03T04:56:08;-0.20;99.90
21830;DHT22;11077;50.264;6.798;2023-04-03T04:58:37;-0.20;99.90
21830;DHT22;11077;50.264;6.798;2023-04-03T05:01:08;-0.20;99.90
21830;DHT22;11077;50.264;6.798;2023-04-03T05:03:41;-0.20;99.90
21830;DHT22;11077;50.264;6.798;2023-04-03T05:06:09;-0.20;99.90
21830;DHT22;11077;50.264;6.798;2023-04-03T05:08:37;-0.20;99.90
21830;DHT22;11077;50.264;6.798;2023-04-03T05:11:04;-0.20;99.90
21830;DHT22;11077;50.264;6.798;2023-04-03T05:13:33;-0.20;99.90
21830;DHT22;11077;50.264;6.798;2023-04-03T05:16:01;-0.20;99.90
21830;DHT22;11077;50.264;6.798;2023-04-03T05:18:30;-0.20;99.90
21830;DHT22;11077;50.264;6.798;2023-04-03T05:21:01;-0.30;99.90
21830;DHT22;11077;50.264;6.798;2023-04-03T05:23:28;-0.30;99.90
21830;DHT22;11077;50.264;6.798;2023-04-03T05:25:58;-0.30;99.90
21830;DHT22;11077;50.264;6.798;2023-04-03T05:28:27;-0.30;99.90
21830;DHT22;11077;50.264;6.798;2023-04-03T05:30:55;-0.40;99.90
21830;DHT22;11077;50.264;6.798;2023-04-03T05:33:26;-0.40;99.90
21830;DHT22;11077;50.264;6.798;2023-04-03T05:36:02;-0.50;99.90
21830;DHT22;11077;50.264;6.798;2023-04-03T05:38:32;-0.50;99.90
21830;DHT22;11077;50.264;6.798;2023-04-03T05:40:59;-0.50;99.90
21830;DHT22;11077;50.264;6.798;2023-04-03T05:43:27;-0.60;99.90
21830;DHT22;11077;50.264;6.798;2023-04-03T05:45:55;-0.60;99.90
21830;DHT22;11077;50.264;6.798;2023-04-03T05:48:31;-0.60;99.90
21830;DHT22;11077;50.264;6.798;2023-04-03T05:51:09;-0.60;99.90
21830;DHT22;11077;50.264;6.798;2023-04-03T05:53:41;-0.60;99.90
21830;DHT22;11077;50.264;6.798;2023-04-03T05:56:10;-0.60;99.90
21830;DHT22;11077;50.264;6.798;2023-04-03T05:58:39;-0.60;99.90
21830;DHT22;11077;50.264;6.798;2023-04-03T06:01:07;-0.60;99.90
21830;DHT22;11077;50.264;6.798;2023-04-03T06:03:36;-0.60;99.90
21830;DHT22;11077;50.264;6.798;2023-04-03T06:06:12;-0.60;99.90
21830;DHT22;11077;50.264;6.798;2023-04-03T06:08:40;-0.60;99.90
21830;DHT22;11077;50.264;6.798;2023-04-03T06:11:11;-0.50;99.90
21830;DHT22;11077;50.264;6.798;2023-04-03T06:13:38;-0.50;99.90
21830;DHT22;11077;50.264;6.798;2023-04-03T06:16:06;-0.40;99.90
21830;DHT22;11077;50.264;6.798;2023-04-03T06:18:35;-0.40;99.90
21830;DHT22;11077;50.264;6.798;2023-04-03T06:21:13;-0.30;99.90
21830;DHT22;11077;50.264;6.798;2023-04-03T06:23:43;-0.20;99.90
21830;DHT22;11077;50.264;6.798;2023-04-03T06:26:20;-0.20;99.90
21830;DHT22;11077;50.264;6.798;2023-04-03T06:28:51;0.00;99.90
21830;DHT22;11077;50.264;6.798;2023-04-03T06:31:23;0.10;99.90
21830;DHT22;11077;50.264;6.798;2023-04-03T06:33:55;0.10;99.90
21830;DHT22;11077;50.264;6.798;2023-04-03T06:36:25;0.20;99.90
21830;DHT22;11077;50.264;6.798;2023-04-03T06:38:57;0.30;99.90
21830;DHT22;11077;50.264;6.798;2023-04-03T06:41:25;0.50;99.90
21830;DHT22;11077;50.264;6.798;2023-04-03T06:43:53;0.60;99.90
21830;DHT22;11077;50.264;6.798;2023-04-03T06:46:22;0.80;99.90
21830;DHT22;11077;50.264;6.798;2023-04-03T06:49:12;0.90;99.90
21830;DHT22;11077;50.264;6.798;2023-04-03T06:51:42;1.00;99.90
21830;DHT22;11077;50.264;6.798;2023-04-03T06:54:15;1.10;99.90
21830;DHT22;11077;50.264;6.798;2023-04-03T06:56:43;1.30;99.90
21830;DHT22;11077;50.264;6.798;2023-04-03T06:59:12;1.40;99.90
21830;DHT22;11077;50.264;6.798;2023-04-03T07:01:42;1.50;99.90
21830;DHT22;11077;50.264;6.798;2023-04-03T07:04:10;1.60;99.90
21830;DHT22;11077;50.264;6.798;2023-04-03T07:06:38;1.60;99.90
21830;DHT22;11077;50.264;6.798;2023-04-03T07:09:08;1.80;99.90
21830;DHT22;11077;50.264;6.798;2023-04-03T07:11:38;1.90;99.90
21830;DHT22;11077;50.264;6.798;2023-04-03T07:14:06;2.00;99.90
21830;DHT22;11077;50.264;6.798;2023-04-03T07:16:34;2.00;99.90
21830;DHT22;11077;50.264;6.798;2023-04-03T07:19:02;2.10;99.90
21830;DHT22;11077;50.264;6.798;2023-04-03T07:21:32;2.20;99.90
21830;DHT22;11077;50.264;6.798;2023-04-03T07:24:00;2.30;99.90
21830;DHT22;11077;50.264;6.798;2023-04-03T07:26:32;2.40;99.90
21830;DHT22;11077;50.264;6.798;2023-04-03T07:28:59;2.50;99.90
21830;DHT22;11077;50.264;6.798;2023-04-03T07:31:27;2.60;99.90
21830;DHT22;11077;50.264;6.798;2023-04-03T07:33:58;2.70;99.90
21830;DHT22;11077;50.264;6.798;2023-04-03T07:36:40;2.80;99.90
21830;DHT22;11077;50.264;6.798;2023-04-03T07:39:11;2.90;99.90
21830;DHT22;11077;50.264;6.798;2023-04-03T07:41:45;3.00;99.90
21830;DHT22;11077;50.264;6.798;2023-04-03T07:44:13;3.10;99.90
21830;DHT22;11077;50.264;6.798;2023-04-03T07:46:41;3.30;99.90
21830;DHT22;11077;50.264;6.798;2023-04-03T07:49:08;3.50;99.90
21830;DHT22;11077;50.264;6.798;2023-04-03T07:51:41;3.40;99.90
21830;DHT22;11077;50.264;6.798;2023-04-03T07:54:08;3.60;99.90
21830;DHT22;11077;50.264;6.798;2023-04-03T07:57:10;3.70;99.90
21830;DHT22;11077;50.264;6.798;2023-04-03T07:59:38;3.70;99.90
21830;DHT22;11077;50.264;6.798;2023-04-03T08:02:08;3.80;99.90
21830;DHT22;11077;50.264;6.798;2023-04-03T08:04:36;3.80;99.90
21830;DHT22;11077;50.264;6.798;2023-04-03T08:07:03;3.80;99.90
21830;DHT22;11077;50.264;6.798;2023-04-03T08:09:30;4.00;99.90
21830;DHT22;11077;50.264;6.798;2023-04-03T08:11:58;4.10;99.90
21830;DHT22;11077;50.264;6.798;2023-04-03T08:14:26;4.30;99.90
21830;DHT22;11077;50.264;6.798;2023-04-03T08:16:54;4.40;99.90
21830;DHT22;11077;50.264;6.798;2023-04-03T08:19:21;4.50;99.90
21830;DHT22;11077;50.264;6.798;2023-04-03T08:21:48;4.60;99.90
21830;DHT22;11077;50.264;6.798;2023-04-03T08:24:16;4.70;99.90
21830;DHT22;11077;50.264;6.798;2023-04-03T08:26:43;4.80;99.90
21830;DHT22;11077;50.264;6.798;2023-04-03T08:29:10;4.80;99.90
21830;DHT22;11077;50.264;6.798;2023-04-03T08:31:39;4.90;99.90
21830;DHT22;11077;50.264;6.798;2023-04-03T08:34:06;5.00;99.90
21830;DHT22;11077;50.264;6.798;2023-04-03T08:36:34;5.10;99.90
21830;DHT22;11077;50.264;6.798;2023-04-03T08:39:01;5.00;99.90
21830;DHT22;11077;50.264;6.798;2023-04-03T08:41:33;5.00;99.90
21830;DHT22;11077;50.264;6.798;2023-04-03T08:44:09;5.00;99.90
21830;DHT22;11077;50.264;6.798;2023-04-03T08:46:50;4.80;99.90
21830;DHT22;11077;50.264;6.798;2023-04-03T08:49:24;4.80;99.90
21830;DHT22;11077;50.264;6.798;2023-04-03T08:51:51;4.80;99.90
21830;DHT22;11077;50.264;6.798;2023-04-03T08:54:28;4.90;99.90
21830;DHT22;11077;50.264;6.798;2023-04-03T08:56:58;5.10;99.90
21830;DHT22;11077;50.264;6.798;2023-04-03T08:59:29;5.30;99.90
21830;DHT22;11077;50.264;6.798;2023-04-03T09:02:02;5.40;99.90
21830;DHT22;11077;50.264;6.798;2023-04-03T09:04:32;5.50;99.90
21830;DHT22;11077;50.264;6.798;2023-04-03T09:07:07;5.50;99.90
21830;DHT22;11077;50.264;6.798;2023-04-03T09:09:37;5.60;99.90
21830;DHT22;11077;50.264;6.798;2023-04-03T09:12:16;5.80;99.90
21830;DHT22;11077;50.264;6.798;2023-04-03T09:14:49;5.80;99.90
21830;DHT22;11077;50.264;6.798;2023-04-03T09:17:29;5.60;99.90
21830;DHT22;11077;50.264;6.798;2023-04-03T09:20:05;5.60;99.90
21830;DHT22;11077;50.264;6.798;2023-04-03T09:22:34;5.70;99.90
21830;DHT22;11077;50.264;6.798;2023-04-03T09:25:09;5.80;99.90
21830;DHT22;11077;50.264;6.798;2023-04-03T09:27:38;6.10;99.90
21830;DHT22;11077;50.264;6.798;2023-04-03T09:30:11;6.20;99.90
21830;DHT22;11077;50.264;6.798;2023-04-03T09:32:40;6.30;99.90
21830;DHT22;11077;50.264;6.798;2023-04-03T09:35:18;6.30;99.90
21830;DHT22;11077;50.264;6.798;2023-04-03T09:37:47;6.30;99.90
21830;DHT22;11077;50.264;6.798;2023-04-03T09:40:35;6.50;99.90
21830;DHT22;11077;50.264;6.798;2023-04-03T09:43:26;6.60;99.90
21830;DHT22;11077;50.264;6.798;2023-04-03T09:45:54;6.70;99.90
21830;DHT22;11077;50.264;6.798;2023-04-03T09:48:25;6.70;99.90
21830;DHT22;11077;50.264;6.798;2023-04-03T09:51:00;6.70;99.90
21830;DHT22;11077;50.264;6.798;2023-04-03T09:53:34;6.90;99.90
21830;DHT22;11077;50.264;6.798;2023-04-03T09:56:04;7.00;99.90
21830;DHT22;11077;50.264;6.798;2023-04-03T09:58:36;7.20;99.90
21830;DHT22;11077;50.264;6.798;2023-04-03T10:01:05;7.50;99.90
21830;DHT22;11077;50.264;6.798;2023-04-03T10:03:35;7.60;99.90
21830;DHT22;11077;50.264;6.798;2023-04-03T10:06:03;7.70;99.90
21830;DHT22;11077;50.264;6.798;2023-04-03T10:08:34;7.70;99.90
21830;DHT22;11077;50.264;6.798;2023-04-03T10:11:13;7.70;99.90
21830;DHT22;11077;50.264;6.798;2023-04-03T10:13:55;7.70;99.90
21830;DHT22;11077;50.264;6.798;2023-04-03T10:16:28;7.90;99.90
21830;DHT22;11077;50.264;6.798;2023-04-03T10:19:06;8.10;99.90
21830;DHT22;11077;50.264;6.798;2023-04-03T10:21:46;8.30;99.90
21830;DHT22;11077;50.264;6.798;2023-04-03T10:24:21;8.50;99.90
21830;DHT22;11077;50.264;6.798;2023-04-03T10:26:57;8.70;99.90
21830;DHT22;11077;50.264;6.798;2023-04-03T10:29:38;9.00;99.90
21830;DHT22;11077;50.264;6.798;2023-04-03T10:32:22;9.20;99.90
21830;DHT22;11077;50.264;6.798;2023-04-03T10:35:00;9.40;99.90
21830;DHT22;11077;50.264;6.798;2023-04-03T10:37:34;9.50;99.90
21830;DHT22;11077;50.264;6.798;2023-04-03T10:40:12;9.60;99.90
21830;DHT22;11077;50.264;6.798;2023-04-03T10:42:46;9.50;99.90
21830;DHT22;11077;50.264;6.798;2023-04-03T10:45:24;9.30;99.90
21830;DHT22;11077;50.264;6.798;2023-04-03T10:48:01;9.00;99.90
21830;DHT22;11077;50.264;6.798;2023-04-03T10:50:40;8.80;99.90
21830;DHT22;11077;50.264;6.798;2023-04-03T10:53:17;8.40;99.90
21830;DHT22;11077;50.264;6.798;2023-04-03T10:55:51;8.00;99.90
21830;DHT22;11077;50.264;6.798;2023-04-03T10:58:31;7.90;99.90
21830;DHT22;11077;50.264;6.798;2023-04-03T11:01:02;8.10;99.90
21830;DHT22;11077;50.264;6.798;2023-04-03T11:03:35;8.30;99.90
21830;DHT22;11077;50.264;6.798;2023-04-03T11:06:09;8.40;99.90
21830;DHT22;11077;50.264;6.798;2023-04-03T11:08:40;8.70;99.90
21830;DHT22;11077;50.264;6.798;2023-04-03T11:11:13;8.80;99.90
21830;DHT22;11077;50.264;6.798;2023-04-03T11:13:43;8.90;99.90
21830;DHT22;11077;50.264;6.798;2023-04-03T11:16:16;9.00;99.90
21830;DHT22;11077;50.264;6.798;2023-04-03T11:18:49;9.00;99.90
21830;DHT22;11077;50.264;6.798;2023-04-03T11:21:21;9.00;99.90
21830;DHT22;11077;50.264;6.798;2023-04-03T11:23:51;9.10;99.90
21830;DHT22;11077;50.264;6.798;2023-04-03T11:26:22;9.10;99.90
21830;DHT22;11077;50.264;6.798;2023-04-03T11:28:53;9.00;99.90
21830;DHT22;11077;50.264;6.798;2023-04-03T11:31:33;9.30;99.90
21830;DHT22;11077;50.264;6.798;2023-04-03T11:34:08;9.10;99.90
21830;DHT22;11077;50.264;6.798;2023-04-03T11:36:44;9.20;99.90
21830;DHT22;11077;50.264;6.798;2023-04-03T11:39:20;9.30;99.90
21830;DHT22;11077;50.264;6.798;2023-04-03T11:41:49;9.50;99.90
21830;DHT22;11077;50.264;6.798;2023-04-03T11:44:32;9.70;99.90
21830;DHT22;11077;50.264;6.798;2023-04-03T11:47:03;9.70;99.90
21830;DHT22;11077;50.264;6.798;2023-04-03T11:49:57;9.90;99.90
21830;DHT22;11077;50.264;6.798;2023-04-03T11:53:03;9.80;99.90
21830;DHT22;11077;50.264;6.798;2023-04-03T11:55:55;9.60;99.90
21830;DHT22;11077;50.264;6.798;2023-04-03T11:58:24;9.80;99.90
21830;DHT22;11077;50.264;6.798;2023-04-03T12:01:07;9.70;99.90
21830;DHT22;11077;50.264;6.798;2023-04-03T12:12:59;9.70;99.90
21830;DHT22;11077;50.264;6.798;2023-04-03T12:15:49;9.40;99.90
21830;DHT22;11077;50.264;6.798;2023-04-03T12:18:55;9.10;99.70
21830;DHT22;11077;50.264;6.798;2023-04-03T12:24:32;8.70;99.90
21830;DHT22;11077;50.264;6.798;2023-04-03T12:27:14;8.80;99.90
21830;DHT22;11077;50.264;6.798;2023-04-03T12:29:49;8.70;99.90
21830;DHT22;11077;50.264;6.798;2023-04-03T12:32:30;8.70;99.90
21830;DHT22;11077;50.264;6.798;2023-04-03T12:35:14;8.10;99.90
21830;DHT22;11077;50.264;6.798;2023-04-03T12:40:43;8.00;99.90
21830;DHT22;11077;50.264;6.798;2023-04-03T12:46:13;8.10;99.90
21830;DHT22;11077;50.264;6.798;2023-04-03T12:48:49;8.10;99.90
21830;DHT22;11077;50.264;6.798;2023-04-03T12:51:19;8.00;99.90
21830;DHT22;11077;50.264;6.798;2023-04-03T12:53:49;8.10;99.90
21830;DHT22;11077;50.264;6.798;2023-04-03T12:56:23;8.30;99.90
21830;DHT22;11077;50.264;6.798;2023-04-03T12:58:52;8.20;99.90
21830;DHT22;11077;50.264;6.798;2023-04-03T13:01:23;8.20;99.90
21830;DHT22;11077;50.264;6.798;2023-04-03T13:03:54;8.20;99.90
21830;DHT22;11077;50.264;6.798;2023-04-03T13:06:23;8.10;99.90
21830;DHT22;11077;50.264;6.798;2023-04-03T13:08:54;8.00;99.90
21830;DHT22;11077;50.264;6.798;2023-04-03T13:11:23;7.90;99.90
21830;DHT22;11077;50.264;6.798;2023-04-03T13:13:56;7.80;99.90
21830;DHT22;11077;50.264;6.798;2023-04-03T13:16:26;7.60;99.90
21830;DHT22;11077;50.264;6.798;2023-04-03T13:18:54;7.30;99.90
21830;DHT22;11077;50.264;6.798;2023-04-03T13:21:23;7.10;99.90
21830;DHT22;11077;50.264;6.798;2023-04-03T13:23:54;7.00;99.90
21830;DHT22;11077;50.264;6.798;2023-04-03T13:26:25;7.00;99.90
21830;DHT22;11077;50.264;6.798;2023-04-03T13:28:54;6.90;99.90
21830;DHT22;11077;50.264;6.798;2023-04-03T13:31:28;6.80;99.90
21830;DHT22;11077;50.264;6.798;2023-04-03T13:34:03;6.80;99.90
21830;DHT22;11077;50.264;6.798;2023-04-03T13:36:34;6.80;99.90
21830;DHT22;11077;50.264;6.798;2023-04-03T13:39:04;6.80;99.90
21830;DHT22;11077;50.264;6.798;2023-04-03T13:41:34;6.70;99.90
21830;DHT22;11077;50.264;6.798;2023-04-03T13:44:26;6.60;99.90
21830;DHT22;11077;50.264;6.798;2023-04-03T13:46:56;6.60;99.90
21830;DHT22;11077;50.264;6.798;2023-04-03T13:49:33;6.50;99.90
21830;DHT22;11077;50.264;6.798;2023-04-03T13:52:02;6.50;99.90
21830;DHT22;11077;50.264;6.798;2023-04-03T13:54:32;6.40;99.90
21830;DHT22;11077;50.264;6.798;2023-04-03T13:57:01;6.40;99.90
21830;DHT22;11077;50.264;6.798;2023-04-03T13:59:30;6.30;99.90
21830;DHT22;11077;50.264;6.798;2023-04-03T14:02:15;6.40;99.90
21830;DHT22;11077;50.264;6.798;2023-04-03T14:04:53;6.30;99.90
21830;DHT22;11077;50.264;6.798;2023-04-03T14:07:24;6.30;99.90
21830;DHT22;11077;50.264;6.798;2023-04-03T14:09:52;6.30;99.90
21830;DHT22;11077;50.264;6.798;2023-04-03T14:12:25;6.30;99.90
21830;DHT22;11077;50.264;6.798;2023-04-03T14:14:54;6.30;99.90
21830;DHT22;11077;50.264;6.798;2023-04-03T14:17:25;6.30;99.90
21830;DHT22;11077;50.264;6.798;2023-04-03T14:19:55;6.30;99.90
21830;DHT22;11077;50.264;6.798;2023-04-03T14:22:24;6.20;99.90
21830;DHT22;11077;50.264;6.798;2023-04-03T14:24:52;6.10;99.90
21830;DHT22;11077;50.264;6.798;2023-04-03T14:27:21;6.00;99.90
21830;DHT22;11077;50.264;6.798;2023-04-03T14:29:51;5.90;99.90
21830;DHT22;11077;50.264;6.798;2023-04-03T14:32:21;5.90;99.90
21830;DHT22;11077;50.264;6.798;2023-04-03T14:34:50;5.90;99.90
21830;DHT22;11077;50.264;6.798;2023-04-03T14:37:19;5.80;99.90
21830;DHT22;11077;50.264;6.798;2023-04-03T14:39:49;5.80;99.90
21830;DHT22;11077;50.264;6.798;2023-04-03T14:42:19;5.80;99.90
21830;DHT22;11077;50.264;6.798;2023-04-03T14:44:49;5.80;99.90
21830;DHT22;11077;50.264;6.798;2023-04-03T14:47:19;5.90;99.90
21830;DHT22;11077;50.264;6.798;2023-04-03T14:49:47;5.80;99.90
21830;DHT22;11077;50.264;6.798;2023-04-03T14:52:20;5.80;99.90
21830;DHT22;11077;50.264;6.798;2023-04-03T14:54:48;5.80;99.90
21830;DHT22;11077;50.264;6.798;2023-04-03T14:57:16;5.80;99.90
21830;DHT22;11077;50.264;6.798;2023-04-03T14:59:44;5.80;99.90
21830;DHT22;11077;50.264;6.798;2023-04-03T15:02:26;5.70;99.90
21830;DHT22;11077;50.264;6.798;2023-04-03T15:04:54;5.80;99.90
21830;DHT22;11077;50.264;6.798;2023-04-03T15:07:23;5.80;99.90
21830;DHT22;11077;50.264;6.798;2023-04-03T15:09:51;5.80;99.90
21830;DHT22;11077;50.264;6.798;2023-04-03T15:12:18;5.80;99.90
21830;DHT22;11077;50.264;6.798;2023-04-03T15:14:46;5.90;99.90
21830;DHT22;11077;50.264;6.798;2023-04-03T15:17:16;5.90;99.90
21830;DHT22;11077;50.264;6.798;2023-04-03T15:19:44;5.80;99.90
21830;DHT22;11077;50.264;6.798;2023-04-03T15:22:16;5.70;99.90
21830;DHT22;11077;50.264;6.798;2023-04-03T15:24:55;5.70;99.90
21830;DHT22;11077;50.264;6.798;2023-04-03T15:27:32;5.60;99.90
21830;DHT22;11077;50.264;6.798;2023-04-03T15:29:59;5.50;99.90
21830;DHT22;11077;50.264;6.798;2023-04-03T15:32:27;5.50;99.90
21830;DHT22;11077;50.264;6.798;2023-04-03T15:34:55;5.60;99.90
21830;DHT22;11077;50.264;6.798;2023-04-03T15:37:22;5.60;99.90
21830;DHT22;11077;50.264;6.798;2023-04-03T15:39:51;5.60;99.90
21830;DHT22;11077;50.264;6.798;2023-04-03T15:42:19;5.70;99.90
21830;DHT22;11077;50.264;6.798;2023-04-03T15:44:46;5.70;99.90
21830;DHT22;11077;50.264;6.798;2023-04-03T15:47:14;5.70;99.90
21830;DHT22;11077;50.264;6.798;2023-04-03T15:49:41;5.60;99.90
21830;DHT22;11077;50.264;6.798;2023-04-03T15:52:09;5.60;99.90
21830;DHT22;11077;50.264;6.798;2023-04-03T15:54:37;5.60;99.90
21830;DHT22;11077;50.264;6.798;2023-04-03T15:57:06;5.60;99.90
21830;DHT22;11077;50.264;6.798;2023-04-03T15:59:33;5.50;99.90
21830;DHT22;11077;50.264;6.798;2023-04-03T16:02:01;5.50;99.90
21830;DHT22;11077;50.264;6.798;2023-04-03T16:04:31;5.40;99.90
21830;DHT22;11077;50.264;6.798;2023-04-03T16:07:01;5.40;99.90
21830;DHT22;11077;50.264;6.798;2023-04-03T16:09:28;5.40;99.90
21830;DHT22;11077;50.264;6.798;2023-04-03T16:11:56;5.40;99.90
21830;DHT22;11077;50.264;6.798;2023-04-03T16:14:25;5.40;99.90
21830;DHT22;11077;50.264;6.798;2023-04-03T16:16:54;5.30;99.90
21830;DHT22;11077;50.264;6.798;2023-04-03T16:19:29;5.30;99.90
21830;DHT22;11077;50.264;6.798;2023-04-03T16:21:57;5.30;99.90
21830;DHT22;11077;50.264;6.798;2023-04-03T16:24:25;5.20;99.90
21830;DHT22;11077;50.264;6.798;2023-04-03T16:26:53;5.20;99.90
21830;DHT22;11077;50.264;6.798;2023-04-03T16:29:21;5.20;99.90
21830;DHT22;11077;50.264;6.798;2023-04-03T16:31:50;5.20;99.90